sensor_id;sensor_type;location;lat;lon;timestamp;pressure;altitude;pressure_sealevel;temperature;humidity
15634;BME280;14654;48.898;8.308;2023-04-01T00:01:53;98922.06;;;9.72;100.00
15634;BME280;14654;48.898;8.308;2023-04-01T00:04:18;98922.97;;;9.70;100.00
15634;BME280;14654;48.898;8.308;2023-04-01T00:06:43;98922.00;;;9.74;100.00
15634;BME280;14654;48.898;8.308;2023-04-01T00:09:08;98919.34;;;9.77;100.00
15634;BME280;14654;48.898;8.308;2023-04-01T00:11:34;98927.81;;;9.82;100.00
15634;BME280;14654;48.898;8.308;2023-04-01T00:13:59;98925.94;;;9.87;100.00
15634;BME280;14654;48.898;8.308;2023-04-01T00:16:25;98925.72;;;9.95;100.00
15634;BME280;14654;48.898;8.308;2023-04-01T00:18:50;98921.22;;;10.02;100.00
15634;BME280;14654;48.898;8.308;2023-04-01T00:21:17;98914.28;;;10.04;100.00
15634;BME280;14654;48.898;8.308;2023-04-01T00:23:42;98915.09;;;10.06;100.00
15634;BME280;14654;48.898;8.308;2023-04-01T00:26:08;98913.25;;;10.10;100.00
15634;BME280;14654;48.898;8.308;2023-04-01T00:28:34;98923.78;;;10.03;100.00
15634;BME280;14654;48.898;8.308;2023-04-01T00:31:05;98920.31;;;10.04;100.00
15634;BME280;14654;48.898;8.308;2023-04-01T00:33:31;98919.28;;;10.10;100.00
15634;BME280;14654;48.898;8.308;2023-04-01T00:36:11;98911.53;;;10.10;100.00
15634;BME280;14654;48.898;8.308;2023-04-01T00:38:38;98914.09;;;10.10;100.00
15634;BME280;14654;48.898;8.308;2023-04-01T00:41:04;98914.34;;;10.02;100.00
15634;BME280;14654;48.898;8.308;2023-04-01T00:43:30;98919.34;;;10.07;100.00
15634;BME280;14654;48.898;8.308;2023-04-01T00:45:56;98909.03;;;10.07;100.00
15634;BME280;14654;48.898;8.308;2023-04-01T00:48:30;98900.38;;;10.08;100.00
15634;BME280;14654;48.898;8.308;2023-04-01T00:51:05;98920.38;;;10.01;100.00
15634;BME280;14654;48.898;8.308;2023-04-01T00:53:32;98914.41;;;9.99;100.00
15634;BME280;14654;48.898;8.308;2023-04-01T00:56:04;98913.53;;;10.00;100.00
15634;BME280;14654;48.898;8.308;2023-04-01T00:58:34;98919.59;;;9.99;100.00
15634;BME280;14654;48.898;8.308;2023-04-01T01:01:00;98922.25;;;9.96;100.00
15634;BME280;14654;48.898;8.308;2023-04-01T01:03:26;98920.56;;;9.95;100.00
15634;BME280;14654;48.898;8.308;2023-04-01T01:08:56;98917.94;;;9.97;100.00
15634;BME280;14654;48.898;8.308;2023-04-01T01:11:42;98912.78;;;9.95;100.00
15634;BME280;14654;48.898;8.308;2023-04-01T01:17:01;98907.69;;;9.94;100.00
15634;BME280;14654;48.898;8.308;2023-04-01T01:25:16;98913.53;;;9.99;100.00
15634;BME280;14654;48.898;8.308;2023-04-01T01:27:51;98895.56;;;9.96;100.00
15634;BME280;14654;48.898;8.308;2023-04-01T01:33:16;98912.94;;;9.90;100.00
15634;BME280;14654;48.898;8.308;2023-04-01T01:35:47;98902.72;;;9.86;100.00
15634;BME280;14654;48.898;8.308;2023-04-01T01:38:16;98901.88;;;9.85;100.00
15634;BME280;14654;48.898;8.308;2023-04-01T01:40:46;98894.09;;;9.87;100.00
15634;BME280;14654;48.898;8.308;2023-04-01T01:43:16;98902.88;;;9.81;100.00
15634;BME280;14654;48.898;8.308;2023-04-01T01:45:47;98905.53;;;9.78;100.00
15634;BME280;14654;48.898;8.308;2023-04-01T01:48:14;98893.38;;;9.82;100.00
15634;BME280;14654;48.898;8.308;2023-04-01T01:50:42;98901.94;;;9.84;100.00
15634;BME280;14654;48.898;8.308;2023-04-01T01:53:11;98901.25;;;9.77;100.00
15634;BME280;14654;48.898;8.308;2023-04-01T01:55:40;98893.59;;;9.74;100.00
15634;BME280;14654;48.898;8.308;2023-04-01T01:58:32;98894.44;;;9.74;100.00
15634;BME280;14654;48.898;8.308;2023-04-01T02:01:17;98895.34;;;9.73;100.00
15634;BME280;14654;48.898;8.308;2023-04-01T02:03:46;98899.63;;;9.73;100.00
15634;BME280;14654;48.898;8.308;2023-04-01T02:06:15;98892.63;;;9.76;100.00
15634;BME280;14654;48.898;8.308;2023-04-01T02:08:45;98889.34;;;9.71;100.00
15634;BME280;14654;48.898;8.308;2023-04-01T02:11:15;98884.19;;;9.71;100.00
15634;BME280;14654;48.898;8.308;2023-04-01T02:13:57;98884.19;;;9.71;100.00
15634;BME280;14654;48.898;8.308;2023-04-01T02:16:36;98874.66;;;9.73;100.00
15634;BME280;14654;48.898;8.308;2023-04-01T02:19:05;98882.41;;;9.73;100.00
15634;BME280;14654;48.898;8.308;2023-04-01T02:21:33;98881.47;;;9.76;100.00
15634;BME280;14654;48.898;8.308;2023-04-01T02:24:00;98879.91;;;9.70;100.00
15634;BME280;14654;48.898;8.308;2023-04-01T02:26:27;98873.88;;;9.70;100.00
15634;BME280;14654;48.898;8.308;2023-04-01T02:28:54;98874.56;;;9.76;100.00
15634;BME280;14654;48.898;8.308;2023-04-01T02:31:21;98863.47;;;9.73;100.00
15634;BME280;14654;48.898;8.308;2023-04-01T02:33:47;98877.13;;;9.76;100.00
15634;BME280;14654;48.898;8.308;2023-04-01T02:36:13;98879.69;;;9.78;100.00
15634;BME280;14654;48.898;8.308;2023-04-01T02:38:41;98876.38;;;9.73;100.00
15634;BME280;14654;48.898;8.308;2023-04-01T02:41:06;98872.84;;;9.77;100.00
15634;BME280;14654;48.898;8.308;2023-04-01T02:43:32;98887.59;;;9.73;100.00
15634;BME280;14654;48.898;8.308;2023-04-01T02:45:57;98879.84;;;9.73;100.00
15634;BME280;14654;48.898;8.308;2023-04-01T02:48:23;98891.88;;;9.73;100.00
15634;BME280;14654;48.898;8.308;2023-04-01T02:50:48;98881.56;;;9.73;100.00
15634;BME280;14654;48.898;8.308;2023-04-01T02:53:15;98884.13;;;9.73;100.00
15634;BME280;14654;48.898;8.308;2023-04-01T02:55:40;98888.56;;;9.69;100.00
15634;BME280;14654;48.898;8.308;2023-04-01T02:58:05;98893.88;;;9.63;100.00
15634;BME280;14654;48.898;8.308;2023-04-01T03:00:31;98882.66;;;9.64;100.00
15634;BME280;14654;48.898;8.308;2023-04-01T03:02:56;98885.28;;;9.63;100.00
15634;BME280;14654;48.898;8.308;2023-04-01T03:05:22;98891.28;;;9.63;100.00
15634;BME280;14654;48.898;8.308;2023-04-01T03:07:47;98885.22;;;9.66;100.00
15634;BME280;14654;48.898;8.308;2023-04-01T03:10:13;98897.44;;;9.59;100.00
15634;BME280;14654;48.898;8.308;2023-04-01T03:12:39;98888.84;;;9.58;100.00
15634;BME280;14654;48.898;8.308;2023-04-01T03:15:04;98887.00;;;9.64;100.00
15634;BME280;14654;48.898;8.308;2023-04-01T03:17:30;98881.00;;;9.61;100.00
15634;BME280;14654;48.898;8.308;2023-04-01T03:19:55;98889.59;;;9.62;100.00
15634;BME280;14654;48.898;8.308;2023-04-01T03:22:20;98881.00;;;9.61;100.00
15634;BME280;14654;48.898;8.308;2023-04-01T03:24:49;98879.25;;;9.64;100.00
15634;BME280;14654;48.898;8.308;2023-04-01T03:27:14;98885.25;;;9.64;100.00
15634;BME280;14654;48.898;8.308;2023-04-01T03:29:40;98890.53;;;9.59;100.00
15634;BME280;14654;48.898;8.308;2023-04-01T03:32:05;98896.56;;;9.60;100.00
15634;BME280;14654;48.898;8.308;2023-04-01T03:34:31;98896.56;;;9.60;100.00
15634;BME280;14654;48.898;8.308;2023-04-01T03:36:57;98885.22;;;9.66;100.00
15634;BME280;14654;48.898;8.308;2023-04-01T03:39:22;98877.41;;;9.67;100.00
15634;BME280;14654;48.898;8.308;2023-04-01T03:41:48;98879.19;;;9.65;100.00
15634;BME280;14654;48.898;8.308;2023-04-01T03:44:14;98888.72;;;9.63;100.00
15634;BME280;14654;48.898;8.308;2023-04-01T03:46:39;98870.47;;;9.69;100.00
15634;BME280;14654;48.898;8.308;2023-04-01T03:49:09;98877.41;;;9.67;100.00
15634;BME280;14654;48.898;8.308;2023-04-01T03:51:38;98871.34;;;9.68;100.00
15634;BME280;14654;48.898;8.308;2023-04-01T03:54:04;98870.41;;;9.71;100.00
15634;BME280;14654;48.898;8.308;2023-04-01T03:56:30;98879.84;;;9.72;100.00
15634;BME280;14654;48.898;8.308;2023-04-01T03:58:55;98884.00;;;9.77;100.00
15634;BME280;14654;48.898;8.308;2023-04-01T04:01:21;98881.56;;;9.73;100.00
15634;BME280;14654;48.898;8.308;2023-04-01T04:03:47;98878.97;;;9.73;100.00
15634;BME280;14654;48.898;8.308;2023-04-01T04:06:15;98883.34;;;9.71;100.00
15634;BME280;14654;48.898;8.308;2023-04-01T04:08:42;98868.63;;;9.74;100.00
15634;BME280;14654;48.898;8.308;2023-04-01T04:11:07;98876.31;;;9.76;100.00
15634;BME280;14654;48.898;8.308;2023-04-01T04:13:33;98871.97;;;9.76;100.00
15634;BME280;14654;48.898;8.308;2023-04-01T04:15:58;98865.91;;;9.77;100.00
15634;BME280;14654;48.898;8.308;2023-04-01T04:18:24;98871.94;;;9.78;100.00
15634;BME280;14654;48.898;8.308;2023-04-01T04:20:49;98881.41;;;9.79;100.00
15634;BME280;14654;48.898;8.308;2023-04-01T04:23:16;98878.72;;;9.82;100.00
15634;BME280;14654;48.898;8.308;2023-04-01T04:25:41;98872.75;;;9.80;100.00
15634;BME280;14654;48.898;8.308;2023-04-01T04:28:17;98868.41;;;9.81;100.00
15634;BME280;14654;48.898;8.308;2023-04-01T04:30:42;98870.97;;;9.82;100.00
15634;BME280;14654;48.898;8.308;2023-04-01T04:33:08;98864.88;;;9.85;100.00
15634;BME280;14654;48.898;8.308;2023-04-01T04:35:33;98857.94;;;9.85;100.00
15634;BME280;14654;48.898;8.308;2023-04-01T04:37:58;98860.50;;;9.87;100.00
15634;BME280;14654;48.898;8.308;2023-04-01T04:40:23;98858.00;;;9.84;100.00
15634;BME280;14654;48.898;8.308;2023-04-01T04:42:49;98861.41;;;9.84;100.00
15634;BME280;14654;48.898;8.308;2023-04-01T04:45:14;98855.34;;;9.85;100.00
15634;BME280;14654;48.898;8.308;2023-04-01T04:47:40;98847.59;;;9.85;100.00
15634;BME280;14654;48.898;8.308;2023-04-01T04:50:06;98851.09;;;9.84;100.00
15634;BME280;14654;48.898;8.308;2023-04-01T04:52:31;98836.38;;;9.86;100.00
15634;BME280;14654;48.898;8.308;2023-04-01T04:54:56;98845.09;;;9.84;100.00
15634;BME280;14654;48.898;8.308;2023-04-01T04:57:22;98841.69;;;9.82;100.00
15634;BME280;14654;48.898;8.308;2023-04-01T04:59:47;98834.00;;;9.80;100.00
15634;BME280;14654;48.898;8.308;2023-04-01T05:02:12;98843.47;;;9.80;100.00
15634;BME280;14654;48.898;8.308;2023-04-01T05:04:37;98846.13;;;9.76;100.00
15634;BME280;14654;48.898;8.308;2023-04-01T05:07:03;98840.09;;;9.77;100.00
15634;BME280;14654;48.898;8.308;2023-04-01T05:09:28;98842.63;;;9.79;99.47
15634;BME280;14654;48.898;8.308;2023-04-01T05:11:54;98840.94;;;9.78;99.35
15634;BME280;14654;48.898;8.308;2023-04-01T05:14:19;98837.50;;;9.77;99.21
15634;BME280;14654;48.898;8.308;2023-04-01T05:16:44;98846.06;;;9.80;99.17
15634;BME280;14654;48.898;8.308;2023-04-01T05:19:10;98841.69;;;9.82;99.96
15634;BME280;14654;48.898;8.308;2023-04-01T05:21:35;98846.78;;;9.85;99.33
15634;BME280;14654;48.898;8.308;2023-04-01T05:24:00;98826.19;;;9.82;99.37
15634;BME280;14654;48.898;8.308;2023-04-01T05:26:26;98842.72;;;9.76;99.91
15634;BME280;14654;48.898;8.308;2023-04-01T05:28:51;98838.44;;;9.75;100.00
15634;BME280;14654;48.898;8.308;2023-04-01T05:31:16;98842.63;;;9.79;99.99
15634;BME280;14654;48.898;8.308;2023-04-01T05:33:41;98845.31;;;9.76;100.00
15634;BME280;14654;48.898;8.308;2023-04-01T05:36:10;98838.38;;;9.76;100.00
15634;BME280;14654;48.898;8.308;2023-04-01T05:38:37;98847.06;;;9.75;100.00
15634;BME280;14654;48.898;8.308;2023-04-01T05:41:03;98853.88;;;9.76;100.00
15634;BME280;14654;48.898;8.308;2023-04-01T05:43:28;98845.25;;;9.77;100.00
15634;BME280;14654;48.898;8.308;2023-04-01T05:45:55;98842.66;;;9.77;100.00
15634;BME280;14654;48.898;8.308;2023-04-01T05:48:20;98840.97;;;9.76;100.00
15634;BME280;14654;48.898;8.308;2023-04-01T05:50:45;98842.78;;;9.74;100.00
15634;BME280;14654;48.898;8.308;2023-04-01T05:53:11;98841.84;;;9.77;100.00
15634;BME280;14654;48.898;8.308;2023-04-01T05:55:36;98840.28;;;9.71;100.00
15634;BME280;14654;48.898;8.308;2023-04-01T05:58:01;98839.41;;;9.71;100.00
15634;BME280;14654;48.898;8.308;2023-04-01T06:00:27;98832.66;;;9.67;100.00
15634;BME280;14654;48.898;8.308;2023-04-01T06:02:52;98835.25;;;9.67;100.00
15634;BME280;14654;48.898;8.308;2023-04-01T06:05:21;98837.03;;;9.65;100.00
15634;BME280;14654;48.898;8.308;2023-04-01T06:07:47;98837.03;;;9.63;100.00
15634;BME280;14654;48.898;8.308;2023-04-01T06:10:15;98832.78;;;9.62;100.00
15634;BME280;14654;48.898;8.308;2023-04-01T06:15:22;98828.56;;;9.59;100.00
15634;BME280;14654;48.898;8.308;2023-04-01T06:34:22;98855.47;;;9.82;100.00
15634;BME280;14654;48.898;8.308;2023-04-01T06:42:45;98855.91;;;9.97;100.00
15634;BME280;14654;48.898;8.308;2023-04-01T06:48:19;98872.91;;;10.05;100.00
15634;BME280;14654;48.898;8.308;2023-04-01T06:50:57;98868.38;;;10.12;100.00
15634;BME280;14654;48.898;8.308;2023-04-01T06:53:37;98860.41;;;10.20;100.00
15634;BME280;14654;48.898;8.308;2023-04-01T06:56:14;98860.94;;;10.30;100.00
15634;BME280;14654;48.898;8.308;2023-04-01T06:58:53;98862.41;;;10.40;100.00
15634;BME280;14654;48.898;8.308;2023-04-01T07:01:28;98870.75;;;10.48;100.00
15634;BME280;14654;48.898;8.308;2023-04-01T07:04:01;98856.91;;;10.51;100.00
15634;BME280;14654;48.898;8.308;2023-04-01T07:06:45;98863.63;;;10.55;100.00
15634;BME280;14654;48.898;8.308;2023-04-01T07:09:18;98865.19;;;10.61;100.00
15634;BME280;14654;48.898;8.308;2023-04-01T07:11:45;98868.47;;;10.66;100.00
15634;BME280;14654;48.898;8.308;2023-04-01T07:14:27;98875.16;;;10.73;100.00
15634;BME280;14654;48.898;8.308;2023-04-01T07:16:59;98864.69;;;10.76;100.00
15634;BME280;14654;48.898;8.308;2023-04-01T07:19:36;98873.31;;;10.77;100.00
15634;BME280;14654;48.898;8.308;2023-04-01T07:22:14;98877.50;;;10.81;100.00
15634;BME280;14654;48.898;8.308;2023-04-01T07:24:44;98879.38;;;10.76;100.00
15634;BME280;14654;48.898;8.308;2023-04-01T07:27:12;98882.13;;;10.71;100.00
15634;BME280;14654;48.898;8.308;2023-04-01T07:29:37;98882.13;;;10.71;100.00
15634;BME280;14654;48.898;8.308;2023-04-01T07:34:58;98888.88;;;10.75;100.00
15634;BME280;14654;48.898;8.308;2023-04-01T07:37:30;98894.91;;;10.76;100.00
15634;BME280;14654;48.898;8.308;2023-04-01T07:40:12;98899.47;;;10.67;100.00
15634;BME280;14654;48.898;8.308;2023-04-01T07:46:07;98916.75;;;10.37;100.00
15634;BME280;14654;48.898;8.308;2023-04-01T07:54:22;98898.81;;;10.02;100.00
15634;BME280;14654;48.898;8.308;2023-04-01T07:57:02;98897.16;;;10.00;100.00
15634;BME280;14654;48.898;8.308;2023-04-01T08:02:30;98890.94;;;10.07;100.00
15634;BME280;14654;48.898;8.308;2023-04-01T08:10:18;98888.25;;;10.40;100.00
15634;BME280;14654;48.898;8.308;2023-04-01T08:15:41;98886.00;;;10.85;100.00
15634;BME280;14654;48.898;8.308;2023-04-01T08:18:27;98886.97;;;11.07;100.00
15634;BME280;14654;48.898;8.308;2023-04-01T08:21:02;98894.06;;;11.27;100.00
15634;BME280;14654;48.898;8.308;2023-04-01T08:23:36;98895.09;;;11.49;100.00
15634;BME280;14654;48.898;8.308;2023-04-01T08:26:07;98913.25;;;11.72;100.00
15634;BME280;14654;48.898;8.308;2023-04-01T08:31:06;98909.09;;;11.92;100.00
15634;BME280;14654;48.898;8.308;2023-04-01T08:33:36;98915.09;;;11.93;100.00
15634;BME280;14654;48.898;8.308;2023-04-01T08:38:42;98921.75;;;11.76;100.00
15634;BME280;14654;48.898;8.308;2023-04-01T08:44:12;98926.16;;;11.49;100.00
15634;BME280;14654;48.898;8.308;2023-04-01T09:18:45;98925.91;;;11.56;100.00
15634;BME280;14654;48.898;8.308;2023-04-01T09:27:14;98928.16;;;11.89;100.00
15634;BME280;14654;48.898;8.308;2023-04-01T09:38:57;98927.88;;;11.99;100.00
15634;BME280;14654;48.898;8.308;2023-04-01T09:41:39;98929.97;;;11.87;100.00
15634;BME280;14654;48.898;8.308;2023-04-01T09:47:19;98935.13;;;11.89;100.00
15634;BME280;14654;48.898;8.308;2023-04-01T09:52:41;98933.78;;;12.02;100.00
15634;BME280;14654;48.898;8.308;2023-04-01T10:23:34;98950.00;;;13.00;100.00
15634;BME280;14654;48.898;8.308;2023-04-01T10:31:28;98954.81;;;13.09;100.00
15634;BME280;14654;48.898;8.308;2023-04-01T10:36:48;98948.13;;;13.03;100.00
15634;BME280;14654;48.898;8.308;2023-04-01T10:42:45;98954.63;;;12.91;100.00
15634;BME280;14654;48.898;8.308;2023-04-01T10:48:23;98959.72;;;12.72;100.00
15634;BME280;14654;48.898;8.308;2023-04-01T10:56:42;98971.22;;;12.43;100.00
15634;BME280;14654;48.898;8.308;2023-04-01T11:04:37;98973.44;;;12.30;100.00
15634;BME280;14654;48.898;8.308;2023-04-01T11:07:25;98971.06;;;12.24;100.00
15634;BME280;14654;48.898;8.308;2023-04-01T11:24:20;98984.81;;;12.72;100.00
15634;BME280;14654;48.898;8.308;2023-04-01T11:29:37;98982.38;;;12.91;100.00
15634;BME280;14654;48.898;8.308;2023-04-01T11:32:29;98982.97;;;12.98;100.00
15634;BME280;14654;48.898;8.308;2023-04-01T11:45:46;98990.94;;;12.93;100.00
15634;BME280;14654;48.898;8.308;2023-04-01T11:48:39;98998.19;;;12.85;100.00
15634;BME280;14654;48.898;8.308;2023-04-01T11:54:05;99001.44;;;12.90;100.00
15634;BME280;14654;48.898;8.308;2023-04-01T12:04:54;99013.44;;;12.92;100.00
15634;BME280;14654;48.898;8.308;2023-04-01T12:10:27;99020.16;;;12.98;100.00
15634;BME280;14654;48.898;8.308;2023-04-01T12:23:37;99024.84;;;12.88;100.00
15634;BME280;14654;48.898;8.308;2023-04-01T12:31:46;99023.81;;;12.70;100.00
15634;BME280;14654;48.898;8.308;2023-04-01T12:37:15;99034.22;;;12.46;100.00
15634;BME280;14654;48.898;8.308;2023-04-01T12:49:07;99046.72;;;12.35;100.00
15634;BME280;14654;48.898;8.308;2023-04-01T12:52:15;99047.59;;;12.35;100.00
15634;BME280;14654;48.898;8.308;2023-04-01T12:55:13;99051.25;;;12.30;100.00
15634;BME280;14654;48.898;8.308;2023-04-01T13:03:16;99058.00;;;12.10;100.00
15634;BME280;14654;48.898;8.308;2023-04-01T13:08:43;99069.53;;;12.01;100.00
15634;BME280;14654;48.898;8.308;2023-04-01T13:19:35;99072.72;;;12.10;100.00
15634;BME280;14654;48.898;8.308;2023-04-01T13:22:07;99069.53;;;12.01;100.00
15634;BME280;14654;48.898;8.308;2023-04-01T13:30:10;99090.81;;;11.84;100.00
15634;BME280;14654;48.898;8.308;2023-04-01T13:38:30;99083.03;;;12.11;100.00
15634;BME280;14654;48.898;8.308;2023-04-01T13:41:12;99083.03;;;12.11;100.00
15634;BME280;14654;48.898;8.308;2023-04-01T13:43:49;99087.47;;;12.08;100.00
15634;BME280;14654;48.898;8.308;2023-04-01T13:46:44;99084.81;;;12.09;100.00
15634;BME280;14654;48.898;8.308;2023-04-01T13:52:40;99088.47;;;12.29;100.00
15634;BME280;14654;48.898;8.308;2023-04-01T14:03:47;99089.47;;;12.25;100.00
15634;BME280;14654;48.898;8.308;2023-04-01T14:06:28;99087.09;;;12.18;100.00
15634;BME280;14654;48.898;8.308;2023-04-01T14:11:45;99092.50;;;12.12;100.00
15634;BME280;14654;48.898;8.308;2023-04-01T14:17:16;99097.16;;;12.02;100.00
15634;BME280;14654;48.898;8.308;2023-04-01T14:33:46;99098.50;;;12.14;100.00
15634;BME280;14654;48.898;8.308;2023-04-01T14:44:11;99102.72;;;12.17;100.00
15634;BME280;14654;48.898;8.308;2023-04-01T14:49:24;99115.22;;;12.06;100.00
15634;BME280;14654;48.898;8.308;2023-04-01T14:51:55;99110.03;;;12.06;100.00
15634;BME280;14654;48.898;8.308;2023-04-01T14:54:41;99101.19;;;12.11;100.00
15634;BME280;14654;48.898;8.308;2023-04-01T14:57:14;99103.44;;;12.20;100.00
15634;BME280;14654;48.898;8.308;2023-04-01T15:05:14;99088.66;;;12.48;100.00
15634;BME280;14654;48.898;8.308;2023-04-01T15:16:11;99097.72;;;12.36;100.00
15634;BME280;14654;48.898;8.308;2023-04-01T15:26:44;99105.66;;;12.31;100.00
15634;BME280;14654;48.898;8.308;2023-04-01T15:34:34;99121.38;;;12.52;100.00
15634;BME280;14654;48.898;8.308;2023-04-01T15:43:03;99117.47;;;12.40;100.00
15634;BME280;14654;48.898;8.308;2023-04-01T15:45:39;99127.13;;;12.37;100.00
15634;BME280;14654;48.898;8.308;2023-04-01T15:56:13;99129.72;;;12.11;100.00
15634;BME280;14654;48.898;8.308;2023-04-01T16:07:05;99125.81;;;11.98;100.00
15634;BME280;14654;48.898;8.308;2023-04-01T16:09:47;99117.00;;;12.03;100.00
15634;BME280;14654;48.898;8.308;2023-04-01T16:12:15;99109.91;;;12.09;100.00
15634;BME280;14654;48.898;8.308;2023-04-01T16:23:01;99112.88;;;11.96;100.00
15634;BME280;14654;48.898;8.308;2023-04-01T16:25:43;99114.78;;;11.91;100.00
15634;BME280;14654;48.898;8.308;2023-04-01T16:33:46;99121.41;;;11.73;100.00
15634;BME280;14654;48.898;8.308;2023-04-01T16:39:33;99137.44;;;11.57;100.00
15634;BME280;14654;48.898;8.308;2023-04-01T16:45:28;99173.28;;;11.43;100.00
15634;BME280;14654;48.898;8.308;2023-04-01T16:48:06;99180.31;;;11.39;100.00
15634;BME280;14654;48.898;8.308;2023-04-01T16:50:49;99179.50;;;11.39;100.00
15634;BME280;14654;48.898;8.308;2023-04-01T16:53:21;99177.88;;;11.35;100.00
15634;BME280;14654;48.898;8.308;2023-04-01T16:56:06;99188.31;;;11.32;100.00
15634;BME280;14654;48.898;8.308;2023-04-01T16:58:38;99182.34;;;11.29;100.00
15634;BME280;14654;48.898;8.308;2023-04-01T17:01:24;99186.03;;;11.22;100.00
15634;BME280;14654;48.898;8.308;2023-04-01T17:03:58;99178.41;;;11.16;100.00
15634;BME280;14654;48.898;8.308;2023-04-01T17:06:39;99179.53;;;11.07;100.00
15634;BME280;14654;48.898;8.308;2023-04-01T17:15:21;99192.53;;;11.06;100.00
15634;BME280;14654;48.898;8.308;2023-04-01T17:20:58;99184.94;;;11.00;100.00
15634;BME280;14654;48.898;8.308;2023-04-01T17:23:44;99196.16;;;11.00;100.00
15634;BME280;14654;48.898;8.308;2023-04-01T17:34:42;99208.63;;;10.86;100.00
15634;BME280;14654;48.898;8.308;2023-04-01T17:37:28;99216.63;;;10.76;100.00
15634;BME280;14654;48.898;8.308;2023-04-01T17:40:15;99214.25;;;10.68;100.00
15634;BME280;14654;48.898;8.308;2023-04-01T17:42:50;99220.56;;;10.58;100.00
15634;BME280;14654;48.898;8.308;2023-04-01T17:59:38;99239.13;;;10.03;100.00
15634;BME280;14654;48.898;8.308;2023-04-01T18:02:30;99233.38;;;9.90;100.00
15634;BME280;14654;48.898;8.308;2023-04-01T18:15:39;99249.22;;;9.36;100.00
15634;BME280;14654;48.898;8.308;2023-04-01T18:24:00;99257.53;;;9.06;100.00
15634;BME280;14654;48.898;8.308;2023-04-01T18:26:31;99257.59;;;9.03;100.00
15634;BME280;14654;48.898;8.308;2023-04-01T18:35:27;99253.44;;;8.96;100.00
15634;BME280;14654;48.898;8.308;2023-04-01T18:38:00;99261.19;;;8.94;100.00
15634;BME280;14654;48.898;8.308;2023-04-01T18:40:46;99257.72;;;8.95;100.00
15634;BME280;14654;48.898;8.308;2023-04-01T18:43:29;99248.22;;;8.99;100.00
15634;BME280;14654;48.898;8.308;2023-04-01T18:46:16;99259.38;;;8.99;100.00
15634;BME280;14654;48.898;8.308;2023-04-01T18:51:38;99255.78;;;9.08;100.00
15634;BME280;14654;48.898;8.308;2023-04-01T18:54:40;99263.47;;;9.10;100.00
15634;BME280;14654;48.898;8.308;2023-04-01T18:57:02;99260.94;;;9.08;100.00
15634;BME280;14654;48.898;8.308;2023-04-01T19:10:13;99292.25;;;8.91;100.00
15634;BME280;14654;48.898;8.308;2023-04-01T19:20:59;99301.94;;;9.24;100.00
15634;BME280;14654;48.898;8.308;2023-04-01T19:31:43;99313.47;;;9.51;100.00
15634;BME280;14654;48.898;8.308;2023-04-01T19:37:39;99321.13;;;9.54;100.00
15634;BME280;14654;48.898;8.308;2023-04-01T19:42:59;99324.63;;;9.52;100.00
15634;BME280;14654;48.898;8.308;2023-04-01T19:48:39;99321.38;;;9.42;100.00
15634;BME280;14654;48.898;8.308;2023-04-01T19:51:09;99329.28;;;9.36;100.00
15634;BME280;14654;48.898;8.308;2023-04-01T19:56:23;99332.88;;;9.27;100.00
15634;BME280;14654;48.898;8.308;2023-04-01T19:59:04;99337.22;;;9.23;100.00
15634;BME280;14654;48.898;8.308;2023-04-01T20:01:39;99344.13;;;9.23;100.00
15634;BME280;14654;48.898;8.308;2023-04-01T20:04:35;99347.53;;;9.23;100.00
15634;BME280;14654;48.898;8.308;2023-04-01T20:07:20;99348.47;;;9.22;100.00
15634;BME280;14654;48.898;8.308;2023-04-01T20:15:34;99363.84;;;9.27;100.00
15634;BME280;14654;48.898;8.308;2023-04-01T20:23:45;99371.56;;;9.28;100.00
15634;BME280;14654;48.898;8.308;2023-04-01T20:26:21;99369.03;;;9.25;100.00
15634;BME280;14654;48.898;8.308;2023-04-01T20:31:41;99370.81;;;9.22;100.00
15634;BME280;14654;48.898;8.308;2023-04-01T20:34:21;99377.75;;;9.20;100.00
15634;BME280;14654;48.898;8.308;2023-04-01T20:44:50;99385.19;;;9.37;100.00
15634;BME280;14654;48.898;8.308;2023-04-01T21:06:51;99396.88;;;9.56;100.00
15634;BME280;14654;48.898;8.308;2023-04-01T21:12:20;99407.19;;;9.58;100.00
15634;BME280;14654;48.898;8.308;2023-04-01T21:36:40;99422.59;;;9.63;100.00
15634;BME280;14654;48.898;8.308;2023-04-01T21:44:36;99425.19;;;9.63;100.00
15634;BME280;14654;48.898;8.308;2023-04-01T21:47:18;99426.88;;;9.64;100.00
15634;BME280;14654;48.898;8.308;2023-04-01T21:50:00;99425.13;;;9.64;100.00
15634;BME280;14654;48.898;8.308;2023-04-01T21:55:33;99426.81;;;9.67;100.00
15634;BME280;14654;48.898;8.308;2023-04-01T22:04:04;99438.88;;;9.66;100.00
15634;BME280;14654;48.898;8.308;2023-04-01T22:06:59;99434.59;;;9.65;100.00
15634;BME280;14654;48.898;8.308;2023-04-01T22:13:01;99443.22;;;9.66;100.00
15634;BME280;14654;48.898;8.308;2023-04-01T22:18:52;99443.06;;;9.72;100.00
15634;BME280;14654;48.898;8.308;2023-04-01T22:21:32;99446.47;;;9.75;100.00
15634;BME280;14654;48.898;8.308;2023-04-01T22:24:06;99448.13;;;9.78;100.00
15634;BME280;14654;48.898;8.308;2023-04-01T22:26:59;99452.44;;;9.79;100.00
15634;BME280;14654;48.898;8.308;2023-04-01T22:32:24;99456.72;;;9.79;100.00
15634;BME280;14654;48.898;8.308;2023-04-01T22:35:16;99451.59;;;9.77;100.00
15634;BME280;14654;48.898;8.308;2023-04-01T22:38:06;99454.97;;;9.82;100.00
15634;BME280;14654;48.898;8.308;2023-04-01T22:43:39;99457.66;;;9.76;100.00
15634;BME280;14654;48.898;8.308;2023-04-01T22:51:41;99456.03;;;9.69;100.00
15634;BME280;14654;48.898;8.308;2023-04-01T22:59:42;99469.88;;;9.66;100.00
15634;BME280;14654;48.898;8.308;2023-04-01T23:02:14;99471.63;;;9.64;100.00
15634;BME280;14654;48.898;8.308;2023-04-01T23:04:43;99478.53;;;9.64;100.00
15634;BME280;14654;48.898;8.308;2023-04-01T23:10:01;99486.28;;;9.64;100.00
15634;BME280;14654;48.898;8.308;2023-04-01T23:12:28;99491.41;;;9.67;100.00
15634;BME280;14654;48.898;8.308;2023-04-01T23:14:58;99488.00;;;9.63;100.00
15634;BME280;14654;48.898;8.308;2023-04-01T23:17:50;99500.06;;;9.64;100.00